sensor_id;sensor_type;location;lat;lon;timestamp;P1;durP1;ratioP1;P2;durP2;ratioP2
24090;SDS011;12272;52.426;17.100;2022-12-19T00:03:19;80.80;;;38.17;;
24090;SDS011;12272;52.426;17.100;2022-12-19T00:08:22;41.30;;;20.23;;
24090;SDS011;12272;52.426;17.100;2022-12-19T00:13:24;38.20;;;19.30;;
24090;SDS011;12272;52.426;17.100;2022-12-19T00:18:29;41.70;;;21.60;;
24090;SDS011;12272;52.426;17.100;2022-12-19T00:23:32;36.63;;;17.63;;
24090;SDS011;12272;52.426;17.100;2022-12-19T00:28:35;43.10;;;22.40;;
24090;SDS011;12272;52.426;17.100;2022-12-19T00:33:38;45.50;;;21.70;;
24090;SDS011;12272;52.426;17.100;2022-12-19T00:38:46;48.10;;;23.67;;
24090;SDS011;12272;52.426;17.100;2022-12-19T00:43:56;43.80;;;20.93;;
24090;SDS011;12272;52.426;17.100;2022-12-19T00:49:00;39.70;;;19.77;;
24090;SDS011;12272;52.426;17.100;2022-12-19T00:54:04;52.33;;;26.30;;
24090;SDS011;12272;52.426;17.100;2022-12-19T00:59:08;39.77;;;21.23;;
24090;SDS011;12272;52.426;17.100;2022-12-19T01:04:12;34.40;;;17.93;;
24090;SDS011;12272;52.426;17.100;2022-12-19T01:09:35;43.83;;;22.30;;
24090;SDS011;12272;52.426;17.100;2022-12-19T01:14:38;38.47;;;19.47;;
24090;SDS011;12272;52.426;17.100;2022-12-19T01:19:41;45.63;;;21.20;;
24090;SDS011;12272;52.426;17.100;2022-12-19T01:24:45;58.70;;;30.53;;
24090;SDS011;12272;52.426;17.100;2022-12-19T01:29:49;40.50;;;22.20;;
24090;SDS011;12272;52.426;17.100;2022-12-19T01:34:53;70.77;;;34.00;;
24090;SDS011;12272;52.426;17.100;2022-12-19T01:39:56;59.17;;;31.17;;
24090;SDS011;12272;52.426;17.100;2022-12-19T01:50:16;57.87;;;29.03;;
24090;SDS011;12272;52.426;17.100;2022-12-19T01:55:27;48.27;;;22.77;;
24090;SDS011;12272;52.426;17.100;2022-12-19T02:00:29;46.00;;;20.87;;
24090;SDS011;12272;52.426;17.100;2022-12-19T02:05:34;39.73;;;18.97;;
24090;SDS011;12272;52.426;17.100;2022-12-19T02:10:37;48.57;;;23.13;;
24090;SDS011;12272;52.426;17.100;2022-12-19T02:15:47;56.80;;;27.57;;
24090;SDS011;12272;52.426;17.100;2022-12-19T02:37:30;40.63;;;20.90;;
24090;SDS011;12272;52.426;17.100;2022-12-19T02:42:42;35.50;;;17.63;;
24090;SDS011;12272;52.426;17.100;2022-12-19T02:47:47;66.83;;;36.17;;
24090;SDS011;12272;52.426;17.100;2022-12-19T02:52:50;35.07;;;19.03;;
24090;SDS011;12272;52.426;17.100;2022-12-19T02:58:11;55.57;;;29.20;;
24090;SDS011;12272;52.426;17.100;2022-12-19T03:03:22;34.53;;;18.67;;
24090;SDS011;12272;52.426;17.100;2022-12-19T03:13:57;54.07;;;27.10;;
24090;SDS011;12272;52.426;17.100;2022-12-19T03:19:03;45.07;;;23.77;;
24090;SDS011;12272;52.426;17.100;2022-12-19T03:24:10;40.00;;;20.53;;
24090;SDS011;12272;52.426;17.100;2022-12-19T03:34:30;37.27;;;18.23;;
24090;SDS011;12272;52.426;17.100;2022-12-19T03:40:14;37.90;;;17.50;;
24090;SDS011;12272;52.426;17.100;2022-12-19T03:45:24;43.00;;;24.07;;
24090;SDS011;12272;52.426;17.100;2022-12-19T03:50:36;34.43;;;19.20;;
24090;SDS011;12272;52.426;17.100;2022-12-19T03:55:48;38.63;;;20.83;;
24090;SDS011;12272;52.426;17.100;2022-12-19T04:00:58;45.23;;;22.50;;
24090;SDS011;12272;52.426;17.100;2022-12-19T04:06:02;41.00;;;20.80;;
24090;SDS011;12272;52.426;17.100;2022-12-19T04:11:07;40.10;;;20.93;;
24090;SDS011;12272;52.426;17.100;2022-12-19T04:16:25;45.30;;;24.90;;
24090;SDS011;12272;52.426;17.100;2022-12-19T04:21:40;46.10;;;25.93;;
24090;SDS011;12272;52.426;17.100;2022-12-19T04:26:57;45.47;;;23.47;;
24090;SDS011;12272;52.426;17.100;2022-12-19T04:32:02;38.10;;;19.83;;
24090;SDS011;12272;52.426;17.100;2022-12-19T04:37:07;37.33;;;18.97;;
24090;SDS011;12272;52.426;17.100;2022-12-19T04:42:10;41.20;;;21.70;;
24090;SDS011;12272;52.426;17.100;2022-12-19T04:47:12;43.17;;;20.63;;
24090;SDS011;12272;52.426;17.100;2022-12-19T04:52:15;30.13;;;16.40;;
24090;SDS011;12272;52.426;17.100;2022-12-19T04:57:17;35.43;;;18.93;;
24090;SDS011;12272;52.426;17.100;2022-12-19T05:02:20;41.83;;;18.70;;
24090;SDS011;12272;52.426;17.100;2022-12-19T05:07:23;37.83;;;22.13;;
24090;SDS011;12272;52.426;17.100;2022-12-19T05:12:26;49.67;;;24.33;;
24090;SDS011;12272;52.426;17.100;2022-12-19T05:17:30;30.43;;;15.43;;
24090;SDS011;12272;52.426;17.100;2022-12-19T05:22:32;47.40;;;25.00;;
24090;SDS011;12272;52.426;17.100;2022-12-19T05:27:35;37.80;;;19.30;;
24090;SDS011;12272;52.426;17.100;2022-12-19T05:32:37;44.00;;;23.40;;
24090;SDS011;12272;52.426;17.100;2022-12-19T05:37:39;34.47;;;18.70;;
24090;SDS011;12272;52.426;17.100;2022-12-19T05:42:42;33.97;;;18.77;;
24090;SDS011;12272;52.426;17.100;2022-12-19T05:47:45;54.50;;;27.13;;
24090;SDS011;12272;52.426;17.100;2022-12-19T05:52:47;50.00;;;23.63;;
24090;SDS011;12272;52.426;17.100;2022-12-19T05:57:50;46.93;;;24.33;;
24090;SDS011;12272;52.426;17.100;2022-12-19T06:02:52;43.27;;;22.03;;
24090;SDS011;12272;52.426;17.100;2022-12-19T06:07:55;48.07;;;25.33;;
24090;SDS011;12272;52.426;17.100;2022-12-19T06:12:58;36.27;;;15.53;;
24090;SDS011;12272;52.426;17.100;2022-12-19T06:18:00;23.70;;;14.57;;
24090;SDS011;12272;52.426;17.100;2022-12-19T06:23:02;51.75;;;28.17;;
24090;SDS011;12272;52.426;17.100;2022-12-19T06:28:05;53.80;;;25.27;;
24090;SDS011;12272;52.426;17.100;2022-12-19T06:33:08;52.63;;;28.33;;
24090;SDS011;12272;52.426;17.100;2022-12-19T06:38:11;49.43;;;25.93;;
24090;SDS011;12272;52.426;17.100;2022-12-19T06:43:16;50.70;;;24.80;;
24090;SDS011;12272;52.426;17.100;2022-12-19T06:48:18;56.40;;;27.90;;
24090;SDS011;12272;52.426;17.100;2022-12-19T06:53:21;43.77;;;20.57;;
24090;SDS011;12272;52.426;17.100;2022-12-19T06:58:24;52.40;;;27.13;;
24090;SDS011;12272;52.426;17.100;2022-12-19T07:03:31;54.30;;;28.67;;
24090;SDS011;12272;52.426;17.100;2022-12-19T07:08:40;46.33;;;23.97;;
24090;SDS011;12272;52.426;17.100;2022-12-19T07:13:42;39.00;;;20.53;;
24090;SDS011;12272;52.426;17.100;2022-12-19T07:18:45;49.20;;;25.30;;
24090;SDS011;12272;52.426;17.100;2022-12-19T07:23:47;49.77;;;24.53;;
24090;SDS011;12272;52.426;17.100;2022-12-19T07:28:50;55.27;;;27.37;;
24090;SDS011;12272;52.426;17.100;2022-12-19T07:33:53;39.80;;;20.43;;
24090;SDS011;12272;52.426;17.100;2022-12-19T07:38:56;54.43;;;27.57;;
24090;SDS011;12272;52.426;17.100;2022-12-19T07:43:58;51.03;;;26.93;;
24090;SDS011;12272;52.426;17.100;2022-12-19T07:49:01;44.47;;;25.17;;
24090;SDS011;12272;52.426;17.100;2022-12-19T07:54:03;43.07;;;23.33;;
24090;SDS011;12272;52.426;17.100;2022-12-19T07:59:05;45.20;;;22.67;;
24090;SDS011;12272;52.426;17.100;2022-12-19T08:04:08;43.10;;;24.40;;
24090;SDS011;12272;52.426;17.100;2022-12-19T08:09:11;46.43;;;23.87;;
24090;SDS011;12272;52.426;17.100;2022-12-19T08:14:14;49.93;;;24.87;;
24090;SDS011;12272;52.426;17.100;2022-12-19T08:19:16;39.83;;;21.93;;
24090;SDS011;12272;52.426;17.100;2022-12-19T08:24:26;37.00;;;21.17;;
24090;SDS011;12272;52.426;17.100;2022-12-19T08:29:29;42.50;;;18.63;;
24090;SDS011;12272;52.426;17.100;2022-12-19T08:34:36;43.47;;;22.73;;
24090;SDS011;12272;52.426;17.100;2022-12-19T08:39:38;49.77;;;25.27;;
24090;SDS011;12272;52.426;17.100;2022-12-19T08:44:41;45.03;;;25.27;;
24090;SDS011;12272;52.426;17.100;2022-12-19T08:49:43;50.00;;;26.17;;
24090;SDS011;12272;52.426;17.100;2022-12-19T08:54:46;43.77;;;23.40;;
24090;SDS011;12272;52.426;17.100;2022-12-19T08:59:48;38.27;;;19.47;;
24090;SDS011;12272;52.426;17.100;2022-12-19T09:04:52;47.47;;;27.30;;
24090;SDS011;12272;52.426;17.100;2022-12-19T09:10:15;49.03;;;27.90;;
24090;SDS011;12272;52.426;17.100;2022-12-19T09:15:18;40.80;;;23.27;;
24090;SDS011;12272;52.426;17.100;2022-12-19T09:20:20;47.17;;;24.37;;
24090;SDS011;12272;52.426;17.100;2022-12-19T09:25:24;55.27;;;30.30;;
24090;SDS011;12272;52.426;17.100;2022-12-19T09:30:39;48.00;;;26.07;;
24090;SDS011;12272;52.426;17.100;2022-12-19T09:35:47;54.37;;;27.73;;
24090;SDS011;12272;52.426;17.100;2022-12-19T09:47:08;42.23;;;23.63;;
24090;SDS011;12272;52.426;17.100;2022-12-19T09:52:27;54.40;;;29.23;;
24090;SDS011;12272;52.426;17.100;2022-12-19T10:07:58;38.27;;;21.70;;
24090;SDS011;12272;52.426;17.100;2022-12-19T10:13:27;46.47;;;23.40;;
24090;SDS011;12272;52.426;17.100;2022-12-19T10:18:59;30.17;;;16.63;;
24090;SDS011;12272;52.426;17.100;2022-12-19T10:34:41;38.43;;;18.30;;
24090;SDS011;12272;52.426;17.100;2022-12-19T10:45:33;41.17;;;21.00;;
24090;SDS011;12272;52.426;17.100;2022-12-19T10:50:42;42.17;;;22.43;;
24090;SDS011;12272;52.426;17.100;2022-12-19T10:55:48;49.03;;;26.13;;
24090;SDS011;12272;52.426;17.100;2022-12-19T11:01:00;42.40;;;20.73;;
24090;SDS011;12272;52.426;17.100;2022-12-19T11:06:27;36.70;;;21.03;;
24090;SDS011;12272;52.426;17.100;2022-12-19T11:11:47;45.67;;;25.90;;
24090;SDS011;12272;52.426;17.100;2022-12-19T11:22:52;38.83;;;20.57;;
24090;SDS011;12272;52.426;17.100;2022-12-19T11:28:22;46.37;;;24.23;;
24090;SDS011;12272;52.426;17.100;2022-12-19T11:34:03;28.43;;;15.20;;
24090;SDS011;12272;52.426;17.100;2022-12-19T11:39:21;38.97;;;21.20;;
24090;SDS011;12272;52.426;17.100;2022-12-19T11:44:46;42.97;;;21.13;;
24090;SDS011;12272;52.426;17.100;2022-12-19T11:50:15;45.23;;;22.17;;
24090;SDS011;12272;52.426;17.100;2022-12-19T11:55:25;49.13;;;23.90;;
24090;SDS011;12272;52.426;17.100;2022-12-19T12:00:39;51.10;;;24.10;;
24090;SDS011;12272;52.426;17.100;2022-12-19T12:05:50;53.83;;;22.00;;
24090;SDS011;12272;52.426;17.100;2022-12-19T12:10:58;41.73;;;21.30;;
24090;SDS011;12272;52.426;17.100;2022-12-19T12:16:23;44.87;;;19.63;;
24090;SDS011;12272;52.426;17.100;2022-12-19T12:21:59;42.30;;;21.57;;
24090;SDS011;12272;52.426;17.100;2022-12-19T12:33:06;39.33;;;20.00;;
24090;SDS011;12272;52.426;17.100;2022-12-19T12:38:36;30.63;;;15.70;;
24090;SDS011;12272;52.426;17.100;2022-12-19T12:54:06;46.50;;;23.10;;
24090;SDS011;12272;52.426;17.100;2022-12-19T12:59:31;38.77;;;20.00;;
24090;SDS011;12272;52.426;17.100;2022-12-19T13:04:34;44.00;;;22.20;;
24090;SDS011;12272;52.426;17.100;2022-12-19T13:09:43;55.23;;;23.73;;
24090;SDS011;12272;52.426;17.100;2022-12-19T13:14:51;44.87;;;23.03;;
24090;SDS011;12272;52.426;17.100;2022-12-19T13:20:36;29.20;;;16.33;;
24090;SDS011;12272;52.426;17.100;2022-12-19T13:30:28;44.30;;;22.63;;
24090;SDS011;12272;52.426;17.100;2022-12-19T13:35:32;42.13;;;22.83;;
24090;SDS011;12272;52.426;17.100;2022-12-19T13:47:05;29.17;;;15.40;;
24090;SDS011;12272;52.426;17.100;2022-12-19T13:57:46;32.67;;;18.93;;
24090;SDS011;12272;52.426;17.100;2022-12-19T14:02:52;27.03;;;14.10;;
24090;SDS011;12272;52.426;17.100;2022-12-19T14:07:56;39.53;;;19.10;;
24090;SDS011;12272;52.426;17.100;2022-12-19T14:12:59;34.13;;;18.70;;
24090;SDS011;12272;52.426;17.100;2022-12-19T14:18:48;27.23;;;15.63;;
24090;SDS011;12272;52.426;17.100;2022-12-19T14:23:52;35.73;;;17.10;;
24090;SDS011;12272;52.426;17.100;2022-12-19T14:29:19;34.00;;;16.43;;
24090;SDS011;12272;52.426;17.100;2022-12-19T14:34:45;34.33;;;17.93;;
24090;SDS011;12272;52.426;17.100;2022-12-19T14:40:23;34.00;;;17.77;;
24090;SDS011;12272;52.426;17.100;2022-12-19T14:45:34;32.37;;;15.53;;
24090;SDS011;12272;52.426;17.100;2022-12-19T14:51:42;35.27;;;15.43;;
24090;SDS011;12272;52.426;17.100;2022-12-19T15:07:21;39.43;;;20.53;;
24090;SDS011;12272;52.426;17.100;2022-12-19T15:12:34;36.37;;;19.10;;
24090;SDS011;12272;52.426;17.100;2022-12-19T15:18:38;36.37;;;20.10;;
24090;SDS011;12272;52.426;17.100;2022-12-19T15:23:43;44.27;;;18.30;;
24090;SDS011;12272;52.426;17.100;2022-12-19T15:28:50;47.03;;;21.90;;
24090;SDS011;12272;52.426;17.100;2022-12-19T15:33:54;50.60;;;24.97;;
24090;SDS011;12272;52.426;17.100;2022-12-19T15:39:17;37.67;;;21.63;;
24090;SDS011;12272;52.426;17.100;2022-12-19T15:44:37;40.97;;;21.53;;
24090;SDS011;12272;52.426;17.100;2022-12-19T15:49:41;27.50;;;11.93;;
24090;SDS011;12272;52.426;17.100;2022-12-19T15:54:44;34.53;;;19.67;;
24090;SDS011;12272;52.426;17.100;2022-12-19T15:59:51;40.53;;;21.40;;
24090;SDS011;12272;52.426;17.100;2022-12-19T16:04:54;38.10;;;20.17;;
24090;SDS011;12272;52.426;17.100;2022-12-19T16:10:05;41.07;;;21.27;;
24090;SDS011;12272;52.426;17.100;2022-12-19T16:15:12;38.57;;;21.00;;
24090;SDS011;12272;52.426;17.100;2022-12-19T16:20:22;38.57;;;23.13;;
24090;SDS011;12272;52.426;17.100;2022-12-19T16:25:46;39.47;;;21.00;;
24090;SDS011;12272;52.426;17.100;2022-12-19T16:30:56;42.57;;;23.50;;
24090;SDS011;12272;52.426;17.100;2022-12-19T16:36:00;39.03;;;23.17;;
24090;SDS011;12272;52.426;17.100;2022-12-19T16:41:13;40.47;;;21.20;;
24090;SDS011;12272;52.426;17.100;2022-12-19T16:46:24;48.37;;;30.13;;
24090;SDS011;12272;52.426;17.100;2022-12-19T16:51:31;75.90;;;44.70;;
24090;SDS011;12272;52.426;17.100;2022-12-19T16:56:36;84.67;;;46.07;;
24090;SDS011;12272;52.426;17.100;2022-12-19T17:01:46;108.80;;;67.30;;
24090;SDS011;12272;52.426;17.100;2022-12-19T17:06:50;74.07;;;46.83;;
24090;SDS011;12272;52.426;17.100;2022-12-19T17:11:57;63.53;;;36.63;;
24090;SDS011;12272;52.426;17.100;2022-12-19T17:17:01;66.97;;;40.27;;
24090;SDS011;12272;52.426;17.100;2022-12-19T17:22:09;71.37;;;41.57;;
24090;SDS011;12272;52.426;17.100;2022-12-19T17:27:14;78.50;;;43.47;;
24090;SDS011;12272;52.426;17.100;2022-12-19T17:32:18;81.03;;;43.53;;
24090;SDS011;12272;52.426;17.100;2022-12-19T17:37:25;84.40;;;41.80;;
24090;SDS011;12272;52.426;17.100;2022-12-19T17:42:27;69.97;;;40.33;;
24090;SDS011;12272;52.426;17.100;2022-12-19T17:47:37;71.00;;;41.37;;
24090;SDS011;12272;52.426;17.100;2022-12-19T17:52:40;63.97;;;31.80;;
24090;SDS011;12272;52.426;17.100;2022-12-19T17:57:43;55.13;;;28.00;;
24090;SDS011;12272;52.426;17.100;2022-12-19T18:02:46;52.93;;;27.60;;
24090;SDS011;12272;52.426;17.100;2022-12-19T18:07:51;50.37;;;26.87;;
24090;SDS011;12272;52.426;17.100;2022-12-19T18:12:54;54.77;;;27.97;;
24090;SDS011;12272;52.426;17.100;2022-12-19T18:17:57;42.67;;;21.73;;
24090;SDS011;12272;52.426;17.100;2022-12-19T18:23:00;40.63;;;22.47;;
24090;SDS011;12272;52.426;17.100;2022-12-19T18:28:03;50.30;;;26.53;;
24090;SDS011;12272;52.426;17.100;2022-12-19T18:33:05;47.73;;;25.30;;
24090;SDS011;12272;52.426;17.100;2022-12-19T18:38:16;39.43;;;22.90;;
24090;SDS011;12272;52.426;17.100;2022-12-19T18:43:20;53.40;;;27.33;;
24090;SDS011;12272;52.426;17.100;2022-12-19T18:48:23;52.53;;;29.43;;
24090;SDS011;12272;52.426;17.100;2022-12-19T18:53:33;36.60;;;22.27;;
24090;SDS011;12272;52.426;17.100;2022-12-19T18:58:37;45.70;;;23.70;;
24090;SDS011;12272;52.426;17.100;2022-12-19T19:03:40;38.90;;;22.90;;
24090;SDS011;12272;52.426;17.100;2022-12-19T19:08:49;38.53;;;23.63;;
24090;SDS011;12272;52.426;17.100;2022-12-19T19:14:04;47.90;;;26.70;;
24090;SDS011;12272;52.426;17.100;2022-12-19T19:19:07;46.57;;;26.53;;
24090;SDS011;12272;52.426;17.100;2022-12-19T19:24:13;39.30;;;22.63;;
24090;SDS011;12272;52.426;17.100;2022-12-19T19:29:19;78.53;;;42.43;;
24090;SDS011;12272;52.426;17.100;2022-12-19T19:34:31;70.47;;;36.13;;
24090;SDS011;12272;52.426;17.100;2022-12-19T19:39:36;52.70;;;28.43;;
24090;SDS011;12272;52.426;17.100;2022-12-19T19:44:38;57.27;;;30.23;;
24090;SDS011;12272;52.426;17.100;2022-12-19T19:49:41;58.33;;;30.43;;
24090;SDS011;12272;52.426;17.100;2022-12-19T19:54:44;53.97;;;30.53;;
24090;SDS011;12272;52.426;17.100;2022-12-19T19:59:46;51.10;;;27.77;;
24090;SDS011;12272;52.426;17.100;2022-12-19T20:04:49;55.13;;;30.80;;
24090;SDS011;12272;52.426;17.100;2022-12-19T20:09:52;52.70;;;27.60;;
24090;SDS011;12272;52.426;17.100;2022-12-19T20:15:03;51.73;;;30.13;;
24090;SDS011;12272;52.426;17.100;2022-12-19T20:20:06;48.63;;;26.83;;
24090;SDS011;12272;52.426;17.100;2022-12-19T20:25:09;52.77;;;28.70;;
24090;SDS011;12272;52.426;17.100;2022-12-19T20:30:11;53.33;;;28.90;;
24090;SDS011;12272;52.426;17.100;2022-12-19T20:35:14;46.57;;;26.90;;
24090;SDS011;12272;52.426;17.100;2022-12-19T20:40:17;47.63;;;25.80;;
24090;SDS011;12272;52.426;17.100;2022-12-19T20:45:19;55.63;;;30.37;;
24090;SDS011;12272;52.426;17.100;2022-12-19T20:50:23;48.67;;;26.77;;
24090;SDS011;12272;52.426;17.100;2022-12-19T20:55:25;42.67;;;23.90;;
24090;SDS011;12272;52.426;17.100;2022-12-19T21:00:28;45.03;;;23.77;;
24090;SDS011;12272;52.426;17.100;2022-12-19T21:05:30;39.87;;;22.57;;
24090;SDS011;12272;52.426;17.100;2022-12-19T21:10:33;41.57;;;25.10;;
24090;SDS011;12272;52.426;17.100;2022-12-19T21:15:37;37.70;;;22.00;;
24090;SDS011;12272;52.426;17.100;2022-12-19T21:20:40;42.33;;;23.07;;
24090;SDS011;12272;52.426;17.100;2022-12-19T21:32:14;37.23;;;22.83;;
24090;SDS011;12272;52.426;17.100;2022-12-19T21:37:20;38.70;;;22.83;;
24090;SDS011;12272;52.426;17.100;2022-12-19T21:42:25;38.80;;;22.13;;
24090;SDS011;12272;52.426;17.100;2022-12-19T21:47:27;39.90;;;22.13;;
24090;SDS011;12272;52.426;17.100;2022-12-19T21:52:30;46.37;;;25.33;;
24090;SDS011;12272;52.426;17.100;2022-12-19T21:57:32;33.77;;;20.17;;
24090;SDS011;12272;52.426;17.100;2022-12-19T22:02:40;40.53;;;22.27;;
24090;SDS011;12272;52.426;17.100;2022-12-19T22:08:03;41.03;;;23.80;;
24090;SDS011;12272;52.426;17.100;2022-12-19T22:13:05;42.50;;;21.57;;
24090;SDS011;12272;52.426;17.100;2022-12-19T22:18:08;41.40;;;23.10;;
24090;SDS011;12272;52.426;17.100;2022-12-19T22:23:11;39.70;;;22.57;;
24090;SDS011;12272;52.426;17.100;2022-12-19T22:28:14;39.57;;;22.30;;
24090;SDS011;12272;52.426;17.100;2022-12-19T22:33:17;47.23;;;30.33;;
24090;SDS011;12272;52.426;17.100;2022-12-19T22:38:19;43.80;;;24.53;;
24090;SDS011;12272;52.426;17.100;2022-12-19T22:43:22;41.23;;;24.57;;
24090;SDS011;12272;52.426;17.100;2022-12-19T22:48:25;38.77;;;20.93;;
24090;SDS011;12272;52.426;17.100;2022-12-19T22:53:28;38.70;;;22.53;;
24090;SDS011;12272;52.426;17.100;2022-12-19T22:58:37;37.70;;;20.27;;
24090;SDS011;12272;52.426;17.100;2022-12-19T23:03:41;35.50;;;19.87;;
24090;SDS011;12272;52.426;17.100;2022-12-19T23:08:45;34.07;;;16.63;;
24090;SDS011;12272;52.426;17.100;2022-12-19T23:13:48;35.97;;;20.03;;
24090;SDS011;12272;52.426;17.100;2022-12-19T23:18:50;39.60;;;20.90;;
24090;SDS011;12272;52.426;17.100;2022-12-19T23:23:54;35.40;;;20.13;;
24090;SDS011;12272;52.426;17.100;2022-12-19T23:28:57;35.60;;;22.03;;
24090;SDS011;12272;52.426;17.100;2022-12-19T23:34:05;36.20;;;21.80;;
24090;SDS011;12272;52.426;17.100;2022-12-19T23:39:08;41.17;;;22.07;;
24090;SDS011;12272;52.426;17.100;2022-12-19T23:44:11;37.13;;;20.97;;
24090;SDS011;12272;52.426;17.100;2022-12-19T23:49:14;38.10;;;20.27;;
24090;SDS011;12272;52.426;17.100;2022-12-19T23:54:16;33.67;;;17.07;;
24090;SDS011;12272;52.426;17.100;2022-12-19T23:59:19;29.50;;;16.27;;
